Latest Weather Observations for Hay Airport

IDN60801

Issued at 12:42 pm EDT Sunday 18 November 2018 (issued every 10 minutes, with the page automatically refreshed every 10 minutes)

About weather observations | Map of weather stations | Latest weather observations for NSW | Other Formats
Station Details ID: 075019 Name: HAY AIRPORT AWS Lat: -34.54 Lon: 144.83 Height: 92.0 m
Data from the previous 72 hours. | See also: Recent months at Hay Airport
Date/Time
EDT
Temp
°C
App
Temp
°C
Dew
Point
°C
Rel
Hum
%
Delta-T
°C
Wind Press
QNH
hPa
Press
MSL
hPa
Rain since
9am
mm
Dir  Spd
km/h
Gust
km/h
Spd
kts
Gust
kts
18/12:30pm 28.0 22.6 6.2 25 11.5 ENE 24 37 13 20 1018.3 1018.0 0.0
18/12:00pm 26.8 21.0 7.8 30 10.2 NE 28 39 15 21 1018.6 1018.3 0.0
18/11:30am 26.8 22.0 8.7 32 9.9 NE 24 35 13 19 1019.0 1018.7 0.0
18/11:00am 24.7 19.0 8.2 35 8.8 ENE 28 39 15 21 1019.2 1018.9 0.0
18/10:30am 24.7 19.2 9.0 37 8.5 ENE 28 35 15 19 1019.4 1019.1 0.0
18/10:00am 23.4 17.9 9.0 40 7.7 ENE 28 41 15 22 1019.6 1019.3 0.0
18/09:30am 22.5 16.9 8.6 41 7.4 ENE 28 39 15 21 1019.6 1019.3 0.0
18/09:00am 21.2 14.9 9.1 46 6.4 ENE 32 43 17 23 1019.6 1019.3 0.0
18/08:30am 19.8 13.5 9.1 50 5.7 ENE 32 43 17 23 1019.5 1019.2 0.0
18/08:00am 18.9 12.3 8.6 51 5.4 ENE 33 44 18 24 1019.2 1018.9 0.0
18/07:30am 18.5 12.1 8.5 52 5.2 E 32 46 17 25 1019.1 1018.8 0.0
18/07:00am 18.3 12.6 8.3 52 5.2 E 28 41 15 22 1018.9 1018.6 0.0
18/06:30am 17.9 13.4 8.5 54 4.9 E 22 32 12 17 1018.6 1018.3 0.0
18/06:00am 17.9 13.8 8.5 54 4.9 E 20 32 11 17 1018.2 1017.9 0.0
18/05:30am 18.0 13.8 8.3 53 5.0 E 20 30 11 16 1017.8 1017.5 0.0
18/05:00am 17.9 14.3 8.2 53 5.0 E 17 26 9 14 1017.7 1017.4 0.0
18/04:30am 17.7 14.1 8.3 54 4.8 ESE 17 20 9 11 1017.5 1017.2 0.0
18/04:00am 17.6 13.6 8.2 54 4.8 E 19 26 10 14 1017.6 1017.3 0.0
18/03:30am 17.3 13.8 7.4 52 5.0 ESE 15 22 8 12 1017.5 1017.2 0.0
18/03:00am 17.0 13.5 7.1 52 4.9 SE 15 20 8 11 1017.6 1017.3 0.0
18/02:30am 17.0 13.0 6.8 51 5.1 SSE 17 22 9 12 1017.7 1017.4 0.0
18/02:00am 17.7 13.8 6.9 49 5.4 SSE 17 24 9 13 1017.9 1017.6 0.0
18/01:30am 18.4 13.8 6.6 46 5.9 SSE 20 26 11 14 1017.9 1017.6 0.0
18/01:00am 18.8 14.3 6.0 43 6.3 SSE 19 24 10 13 1017.9 1017.6 0.0
18/12:30am 19.2 14.9 5.3 40 6.8 SSE 17 22 9 12 1017.8 1017.5 0.0
18/12:00am 19.9 14.9 3.6 34 7.7 SSE 19 28 10 15 1017.8 1017.5 0.0
 
Date/Time
EDT
Temp
°C
App
Temp
°C
Dew
Point
°C
Rel
Hum
%
Delta-T
°C
Wind Press
QNH
hPa
Press
MSL
hPa
Rain since
9am
mm
Dir  Spd
km/h
Gust
km/h
Spd
kts
Gust
kts
17/11:30pm 20.3 14.9 2.2 30 8.4 SSE 20 26 11 14 1017.7 1017.4 0.0
17/11:00pm 20.8 14.7 0.6 26 9.1 S 22 32 12 17 1017.7 1017.4 0.0
17/10:30pm 20.9 15.5 -1.0 23 9.6 S 17 22 9 12 1017.8 1017.5 0.0
17/10:00pm 21.5 16.6 -0.5 23 9.8 S 15 22 8 12 1017.7 1017.4 0.0
17/09:30pm 21.5 16.7 0.1 24 9.6 S 15 17 8 9 1017.6 1017.3 0.0
17/09:00pm 22.3 17.9 0.2 23 10.0 S 13 17 7 9 1017.2 1016.9 0.0
17/08:30pm 23.3 18.6 1.0 23 10.4 S 15 19 8 10 1017.1 1016.8 0.0
17/08:00pm 25.0 20.4 1.8 22 11.1 SSE 15 20 8 11 1017.0 1016.7 0.0
17/07:30pm 26.1 20.6 0.7 19 12.0 S 19 26 10 14 1016.8 1016.5 0.0
17/07:00pm 26.7 21.4 -0.3 17 12.6 SSE 17 24 9 13 1016.5 1016.2 0.0
17/06:30pm 27.1 21.1 -2.7 14 13.3 SSE 19 26 10 14 1016.4 1016.1 0.0
17/06:00pm 27.5 21.0 -2.3 14 13.4 SSE 22 30 12 16 1016.4 1016.1 0.0
17/05:30pm 27.7 22.1 -3.2 13 13.8 SSE 17 28 9 15 1016.3 1016.0 0.0
17/05:00pm 27.7 21.4 -4.3 12 13.9 S 20 32 11 17 1016.4 1016.1 0.0
17/04:30pm 27.5 20.8 -4.4 12 13.9 SE 22 33 12 18 1016.8 1016.5 0.0
17/04:00pm 27.5 21.3 -3.3 13 13.6 S 20 35 11 19 1017.0 1016.7 0.0
17/03:30pm 27.2 21.1 -3.6 13 13.6 SSE 19 33 10 18 1017.4 1017.1 0.0
17/03:00pm 26.8 20.6 -4.9 12 13.6 SSE 19 33 10 18 1017.8 1017.5 0.0
17/02:30pm 26.5 19.4 -4.1 13 13.3 SSE 24 39 13 21 1018.2 1017.9 0.0
17/02:00pm 26.4 19.6 -5.3 12 13.4 SSW 22 35 12 19 1018.3 1018.0 0.0
17/01:30pm 26.0 19.6 -6.7 11 13.5 S 19 33 10 18 1018.7 1018.4 0.0
17/01:00pm 25.5 19.1 -7.1 11 13.2 S 19 28 10 15 1019.0 1018.7 0.0
17/12:30pm 24.9 18.6 -5.4 13 12.6 S 19 30 10 16 1019.2 1018.9 0.0
17/12:00pm 24.0 17.8 -5.1 14 12.1 S 19 28 10 15 1019.5 1019.2 0.0
17/11:30am 24.0 18.2 -5.1 14 12.1 S 17 26 9 14 1019.7 1019.4 0.0
17/11:00am 22.5 17.1 1.5 25 9.8 S 19 28 10 15 1019.8 1019.6 0.0
17/10:30am 20.4 15.0 2.3 30 8.4 SSE 20 28 11 15 1019.8 1019.6 0.0
17/10:00am 19.2 13.9 3.0 34 7.6 S 20 28 11 15 1019.8 1019.6 0.0
17/09:30am 18.3 12.7 3.4 37 7.0 S 22 28 12 15 1019.9 1019.7 0.0
17/09:00am 17.0 11.4 3.7 41 6.2 S 22 33 12 18 1019.8 1019.6 0.0
17/08:30am 15.6 10.0 3.7 45 5.5 S 22 30 12 16 1019.6 1019.3 0.0
17/08:00am 14.9 9.4 4.0 48 5.0 S 22 28 12 15 1019.6 1019.3 0.0
17/07:30am 13.8 8.8 4.4 53 4.3 S 20 30 11 16 1019.4 1019.1 0.0
17/07:00am 12.7 9.2 5.4 61 3.4 S 13 20 7 11 1019.1 1018.8 0.0
17/06:30am 11.4 7.6 5.7 68 2.7 SSW 15 17 8 9 1018.8 1018.5 0.0
17/06:00am 11.3 7.0 5.4 67 2.7 SSW 17 20 9 11 1018.5 1018.2 0.0
17/05:30am 11.8 7.9 5.2 64 3.1 SSW 15 20 8 11 1018.2 1017.9 0.0
17/05:00am 13.1 8.7 4.8 57 3.8 S 17 22 9 12 1017.9 1017.6 0.0
17/04:30am 13.9 9.2 5.0 55 4.2 S 19 30 10 16 1017.7 1017.4 0.0
17/04:00am 14.4 9.8 5.5 55 4.2 S 19 24 10 13 1017.5 1017.2 0.0
17/03:30am 15.0 10.2 5.5 53 4.5 SSE 20 30 11 16 1017.3 1017.0 0.0
17/03:00am 15.5 10.6 5.1 50 4.9 SSE 20 28 11 15 1017.3 1017.0 0.0
17/02:30am 16.3 11.5 4.4 45 5.6 SSE 19 26 10 14 1017.3 1017.0 0.0
17/02:00am 16.2 12.0 3.9 44 5.7 SSE 15 20 8 11 1017.3 1017.0 0.0
17/01:30am 17.6 12.4 3.5 39 6.6 SSE 20 30 11 16 1017.5 1017.2 0.0
17/01:00am 17.6 12.5 0.7 32 7.4 SSE 17 20 9 11 1017.6 1017.3 0.0
17/12:30am 18.1 12.5 -0.2 29 8.0 S 19 26 10 14 1017.7 1017.4 0.0
17/12:00am 17.3 13.2 -0.4 30 7.6 SSW 11 13 6 7 1017.6 1017.3 0.0
 
Date/Time
EDT
Temp
°C
App
Temp
°C
Dew
Point
°C
Rel
Hum
%
Delta-T
°C
Wind Press
QNH
hPa
Press
MSL
hPa
Rain since
9am
mm
Dir  Spd
km/h
Gust
km/h
Spd
kts
Gust
kts
16/11:30pm 17.5 12.9 -0.7 29 7.8 SSW 13 15 7 8 1017.8 1017.5 0.0
16/11:00pm 17.9 13.3 -0.8 28 8.0 SSW 13 15 7 8 1017.8 1017.5 0.0
16/10:30pm 18.6 14.3 -1.3 26 8.5 SSW 11 13 6 7 1017.8 1017.5 0.0
16/10:00pm 20.0 15.0 -1.2 24 9.2 SSW 15 17 8 9 1017.7 1017.4 0.0
16/09:30pm 20.0 15.8 -1.2 24 9.2 SSW 11 13 6 7 1017.4 1017.1 0.0
16/09:00pm 21.6 16.5 -2.3 20 10.3 SSW 15 19 8 10 1017.0 1016.7 0.0
16/08:30pm 23.2 18.0 -2.4 18 11.1 SSW 15 19 8 10 1016.8 1016.5 0.0
16/08:00pm 24.6 18.9 -3.7 15 12.1 SW 17 20 9 11 1016.5 1016.2 0.0
16/07:30pm 26.0 19.2 -5.6 12 13.3 SW 22 28 12 15 1016.2 1015.9 0.0
16/07:00pm 26.6 19.5 -4.0 13 13.3 SW 24 32 13 17 1015.9 1015.6 0.0
16/06:30pm 27.0 20.7 -5.9 11 13.9 SSW 19 33 10 18 1015.9 1015.6 0.0
16/06:00pm 27.4 20.3 -8.2 9 14.4 SW 22 30 12 16 1015.9 1015.6 0.0
16/05:30pm 27.8 21.2 -6.6 10 14.4 SW 20 30 11 16 1015.9 1015.6 0.0
16/05:00pm 27.7 20.8 -6.6 10 14.3 SW 22 35 12 19 1015.9 1015.6 0.0
16/04:30pm 27.5 20.7 -5.6 11 14.1 SSW 22 35 12 19 1016.0 1015.7 0.0
16/04:00pm 27.8 20.9 -6.6 10 14.4 SW 22 33 12 18 1016.4 1016.1 0.0
16/03:30pm 27.4 20.8 -6.9 10 14.2 SW 20 35 11 19 1016.9 1016.6 0.0
16/03:00pm 27.0 20.6 -7.2 10 14.0 SW 19 30 10 16 1017.4 1017.1 0.0
16/02:30pm 26.7 20.2 -7.4 10 13.9 SW 19 32 10 17 1017.9 1017.6 0.0
16/02:00pm 26.4 20.0 -6.4 11 13.6 WSW 19 30 10 16 1018.3 1018.0 0.0
16/01:30pm 25.2 19.2 -6.2 12 12.9 WSW 17 30 9 16 1018.6 1018.3 0.0
16/01:00pm 24.7 17.6 -4.6 14 12.4 SW 24 37 13 20 1019.1 1018.8 0.0
16/12:30pm 24.4 18.4 -3.0 16 11.9 SSW 19 26 10 14 1019.3 1019.0 0.0
16/12:00pm 24.0 18.2 -1.8 18 11.4 SW 19 28 10 15 1019.6 1019.3 0.0
16/11:30am 22.4 17.5 2.0 26 9.6 SW 17 24 9 13 1019.8 1019.6 0.0
16/11:00am 20.9 16.6 3.2 31 8.4 SSW 15 22 8 12 1020.1 1019.9 0.0
16/10:30am 20.0 15.9 4.1 35 7.7 SSW 15 24 8 13 1020.0 1019.8 0.0
16/10:00am 19.0 15.1 5.5 41 6.6 SSW 15 24 8 13 1020.2 1020.0 0.0
16/09:30am 17.1 13.7 5.7 47 5.5 SSW 13 22 7 12 1020.5 1020.3 0.0
16/09:00am 16.2 13.2 6.1 51 4.9 S 11 15 6 8 1020.5 1020.3 0.0
16/08:30am 14.8 12.2 5.9 55 4.3 S 9 15 5 8 1020.2 1020.0 0.0
16/08:00am 13.5 10.5 6.1 61 3.5 S 11 17 6 9 1020.3 1020.1 0.0
16/07:30am 12.0 9.0 5.9 66 2.9 S 11 15 6 8 1020.2 1020.0 0.0
16/07:00am 10.3 7.5 5.3 71 2.3 SSW 9 11 5 6 1020.0 1019.8 0.0
16/06:30am 8.9 6.6 4.7 75 1.9 SSE 6 7 3 4 1019.9 1019.7 0.0
16/06:00am 8.4 5.4 4.0 74 1.9 SSE 9 11 5 6 1019.5 1019.2 0.0
16/05:30am 9.4 6.1 4.6 72 2.1 S 11 15 6 8 1019.2 1018.9 0.0
16/05:00am 10.4 6.4 4.8 68 2.5 S 15 19 8 10 1019.0 1018.7 0.0
16/04:30am 10.5 6.4 4.6 67 2.7 SSE 15 17 8 9 1019.2 1018.9 0.0
16/04:00am 11.0 7.3 4.7 65 2.9 SSE 13 19 7 10 1019.3 1019.0 0.0
16/03:30am 10.7 7.4 4.4 65 2.8 SSE 11 13 6 7 1019.3 1019.0 0.0
16/03:00am 11.2 8.2 4.0 61 3.2 SE 9 11 5 6 1019.5 1019.2 0.0
16/02:30am 11.9 8.9 3.9 58 3.6 SSE 9 11 5 6 1019.8 1019.6 0.0
16/02:00am 12.7 9.3 3.9 55 4.0 SSE 11 13 6 7 1020.0 1019.8 0.0
16/01:30am 13.5 10.0 3.6 51 4.5 SSE 11 13 6 7 1020.4 1020.2 0.0
16/01:00am 14.0 10.4 2.9 47 5.0 SSE 11 15 6 8 1020.5 1020.3 0.0
16/12:30am 15.0 11.1 3.2 45 5.4 SSE 13 19 7 10 1020.6 1020.4 0.0
16/12:00am 15.8 10.9 2.2 40 6.1 S 17 20 9 11 1020.6 1020.4 0.0
 
Date/Time
EDT
Temp
°C
App
Temp
°C
Dew
Point
°C
Rel
Hum
%
Delta-T
°C
Wind Press
QNH
hPa
Press
MSL
hPa
Rain since
9am
mm
Dir  Spd
km/h
Gust
km/h
Spd
kts
Gust
kts
15/11:30pm 15.9 11.7 1.6 38 6.3 SSE 13 15 7 8 1020.7 1020.5 0.0
15/11:00pm 17.3 12.7 1.3 34 7.1 SSE 15 22 8 12 1020.8 1020.6 0.0
15/10:30pm 17.7 13.4 1.2 33 7.4 SSE 13 17 7 9 1020.6 1020.4 0.0
15/10:00pm 18.5 13.8 1.1 31 7.8 SSE 15 19 8 10 1020.5 1020.3 0.0
15/09:30pm 19.6 14.6 1.1 29 8.4 SSE 17 22 9 12 1020.1 1019.9 0.0
15/09:00pm 20.2 15.5 0.6 27 8.8 SSE 15 20 8 11 1019.8 1019.6 0.0
15/08:30pm 21.6 16.1 0.8 25 9.5 S 19 24 10 13 1019.6 1019.3 0.0
15/08:00pm 22.9 16.6 -1.2 20 10.7 SSW 22 28 12 15 1019.3 1019.0 0.0
15/07:30pm 24.1 17.5 -0.2 20 11.1 SSW 24 32 13 17 1018.9 1018.6 0.0
15/07:00pm 24.9 18.8 0.4 20 11.4 SW 22 28 12 15 1018.5 1018.2 0.0
15/06:30pm 25.5 19.9 0.9 20 11.6 SSW 20 32 11 17 1018.3 1018.0 0.0
15/06:00pm 25.5 19.1 0.9 20 11.6 SW 24 33 13 18 1018.4 1018.1 0.0
15/05:30pm 25.6 19.4 2.3 22 11.3 WSW 24 35 13 19 1018.4 1018.1 0.0
15/05:00pm 25.9 20.6 1.9 21 11.5 SW 19 32 10 17 1018.5 1018.2 0.0
15/04:30pm 25.9 20.4 3.8 24 11.0 SSW 22 30 12 16 1018.6 1018.3 0.0
15/04:00pm 25.3 19.9 4.4 26 10.5 SW 22 28 12 15 1018.7 1018.4 0.0
15/03:30pm 24.9 19.9 4.6 27 10.2 SW 20 33 11 18 1019.0 1018.7 0.0
15/03:00pm 25.1 19.8 4.8 27 10.2 WSW 22 32 12 17 1019.5 1019.2 0.0
15/02:30pm 24.3 18.3 5.1 29 9.7 SSW 26 41 14 22 1020.1 1019.9 0.0
15/02:00pm 23.8 19.6 5.7 31 9.2 SSW 17 33 9 18 1020.6 1020.4 0.0
15/01:30pm 23.7 18.5 5.6 31 9.2 SSW 22 33 12 18 1020.9 1020.7 0.0
15/01:00pm 23.7 19.2 6.0 32 9.0 SW 19 33 10 18 1020.9 1020.7 0.0

Other Formats:

Comma delimited format used in spreadsheet applications
http://www.bom.gov.au/fwo/IDN60801/IDN60801.94702.axf

JavaScript Object Notation format (JSON) in row-major order
http://www.bom.gov.au/fwo/IDN60801/IDN60801.94702.json